sensor_id;sensor_type;location;lat;lon;timestamp;P1;durP1;ratioP1;P2;durP2;ratioP2
45730;SDS011;31440;48.584;13.460;2022-11-20T00:00:24;85.32;;;39.28;;
45730;SDS011;31440;48.584;13.460;2022-11-20T00:02:50;67.00;;;30.70;;
45730;SDS011;31440;48.584;13.460;2022-11-20T00:05:15;41.22;;;20.55;;
45730;SDS011;31440;48.584;13.460;2022-11-20T00:07:40;37.08;;;18.05;;
45730;SDS011;31440;48.584;13.460;2022-11-20T00:10:06;33.80;;;15.63;;
45730;SDS011;31440;48.584;13.460;2022-11-20T00:12:32;31.58;;;17.30;;
45730;SDS011;31440;48.584;13.460;2022-11-20T00:14:58;36.95;;;18.08;;
45730;SDS011;31440;48.584;13.460;2022-11-20T00:17:23;30.13;;;15.95;;
45730;SDS011;31440;48.584;13.460;2022-11-20T00:19:49;31.95;;;16.13;;
45730;SDS011;31440;48.584;13.460;2022-11-20T00:22:14;27.52;;;16.17;;
45730;SDS011;31440;48.584;13.460;2022-11-20T00:24:40;36.08;;;17.05;;
45730;SDS011;31440;48.584;13.460;2022-11-20T00:27:05;33.45;;;16.98;;
45730;SDS011;31440;48.584;13.460;2022-11-20T00:31:58;34.70;;;17.40;;
45730;SDS011;31440;48.584;13.460;2022-11-20T00:34:24;36.80;;;18.73;;
45730;SDS011;31440;48.584;13.460;2022-11-20T00:36:49;34.97;;;18.38;;
45730;SDS011;31440;48.584;13.460;2022-11-20T00:39:15;32.33;;;16.58;;
45730;SDS011;31440;48.584;13.460;2022-11-20T00:41:40;33.08;;;17.73;;
45730;SDS011;31440;48.584;13.460;2022-11-20T00:44:06;34.20;;;17.35;;
45730;SDS011;31440;48.584;13.460;2022-11-20T00:46:31;31.67;;;15.40;;
45730;SDS011;31440;48.584;13.460;2022-11-20T00:48:57;31.90;;;16.10;;
45730;SDS011;31440;48.584;13.460;2022-11-20T00:51:23;34.08;;;16.85;;
45730;SDS011;31440;48.584;13.460;2022-11-20T00:53:50;29.30;;;15.05;;
45730;SDS011;31440;48.584;13.460;2022-11-20T00:56:17;29.58;;;15.15;;
45730;SDS011;31440;48.584;13.460;2022-11-20T00:58:45;27.42;;;15.32;;
45730;SDS011;31440;48.584;13.460;2022-11-20T01:01:17;27.80;;;15.68;;
45730;SDS011;31440;48.584;13.460;2022-11-20T01:03:45;27.00;;;13.85;;
45730;SDS011;31440;48.584;13.460;2022-11-20T01:06:17;26.90;;;14.18;;
45730;SDS011;31440;48.584;13.460;2022-11-20T01:08:45;27.98;;;15.82;;
45730;SDS011;31440;48.584;13.460;2022-11-20T01:11:12;29.85;;;15.15;;
45730;SDS011;31440;48.584;13.460;2022-11-20T01:13:40;21.63;;;12.60;;
45730;SDS011;31440;48.584;13.460;2022-11-20T01:16:07;30.02;;;15.10;;
45730;SDS011;31440;48.584;13.460;2022-11-20T01:18:35;29.27;;;14.45;;
45730;SDS011;31440;48.584;13.460;2022-11-20T01:21:03;30.80;;;15.25;;
45730;SDS011;31440;48.584;13.460;2022-11-20T01:23:33;29.83;;;15.80;;
45730;SDS011;31440;48.584;13.460;2022-11-20T01:26:03;28.13;;;14.20;;
45730;SDS011;31440;48.584;13.460;2022-11-20T01:28:31;32.08;;;15.68;;
45730;SDS011;31440;48.584;13.460;2022-11-20T01:30:58;24.20;;;13.48;;
45730;SDS011;31440;48.584;13.460;2022-11-20T01:33:24;27.00;;;14.93;;
45730;SDS011;31440;48.584;13.460;2022-11-20T01:35:50;29.13;;;14.27;;
45730;SDS011;31440;48.584;13.460;2022-11-20T01:38:16;28.10;;;15.30;;
45730;SDS011;31440;48.584;13.460;2022-11-20T01:40:42;32.35;;;16.45;;
45730;SDS011;31440;48.584;13.460;2022-11-20T01:43:14;27.95;;;13.88;;
45730;SDS011;31440;48.584;13.460;2022-11-20T01:45:50;32.50;;;16.33;;
45730;SDS011;31440;48.584;13.460;2022-11-20T01:48:21;31.02;;;16.17;;
45730;SDS011;31440;48.584;13.460;2022-11-20T01:50:49;27.63;;;14.88;;
45730;SDS011;31440;48.584;13.460;2022-11-20T01:53:16;27.98;;;14.63;;
45730;SDS011;31440;48.584;13.460;2022-11-20T01:55:48;26.90;;;13.90;;
45730;SDS011;31440;48.584;13.460;2022-11-20T01:58:17;28.75;;;16.08;;
45730;SDS011;31440;48.584;13.460;2022-11-20T02:00:46;24.83;;;13.95;;
45730;SDS011;31440;48.584;13.460;2022-11-20T02:03:13;26.73;;;14.50;;
45730;SDS011;31440;48.584;13.460;2022-11-20T02:05:44;28.35;;;15.20;;
45730;SDS011;31440;48.584;13.460;2022-11-20T02:08:20;24.45;;;15.27;;
45730;SDS011;31440;48.584;13.460;2022-11-20T02:10:48;26.55;;;13.80;;
45730;SDS011;31440;48.584;13.460;2022-11-20T02:13:15;29.95;;;15.43;;
45730;SDS011;31440;48.584;13.460;2022-11-20T02:15:59;24.95;;;13.40;;
45730;SDS011;31440;48.584;13.460;2022-11-20T02:18:25;25.98;;;14.38;;
45730;SDS011;31440;48.584;13.460;2022-11-20T02:20:56;28.40;;;14.23;;
45730;SDS011;31440;48.584;13.460;2022-11-20T02:23:38;23.80;;;14.00;;
45730;SDS011;31440;48.584;13.460;2022-11-20T02:26:09;30.55;;;16.02;;
45730;SDS011;31440;48.584;13.460;2022-11-20T02:28:38;28.13;;;14.88;;
45730;SDS011;31440;48.584;13.460;2022-11-20T02:31:04;31.60;;;15.68;;
45730;SDS011;31440;48.584;13.460;2022-11-20T02:33:29;26.23;;;14.10;;
45730;SDS011;31440;48.584;13.460;2022-11-20T02:35:55;25.00;;;14.27;;
45730;SDS011;31440;48.584;13.460;2022-11-20T02:38:20;25.50;;;13.77;;
45730;SDS011;31440;48.584;13.460;2022-11-20T02:40:46;26.17;;;13.77;;
45730;SDS011;31440;48.584;13.460;2022-11-20T02:43:12;27.60;;;14.75;;
45730;SDS011;31440;48.584;13.460;2022-11-20T02:45:37;25.98;;;13.85;;
45730;SDS011;31440;48.584;13.460;2022-11-20T02:48:03;23.88;;;11.88;;
45730;SDS011;31440;48.584;13.460;2022-11-20T02:50:29;23.63;;;12.77;;
45730;SDS011;31440;48.584;13.460;2022-11-20T02:52:54;25.58;;;14.05;;
45730;SDS011;31440;48.584;13.460;2022-11-20T02:55:20;22.58;;;13.25;;
45730;SDS011;31440;48.584;13.460;2022-11-20T02:57:45;24.30;;;13.35;;
45730;SDS011;31440;48.584;13.460;2022-11-20T03:00:11;25.50;;;13.23;;
45730;SDS011;31440;48.584;13.460;2022-11-20T03:02:37;22.25;;;12.80;;
45730;SDS011;31440;48.584;13.460;2022-11-20T03:05:03;27.35;;;15.27;;
45730;SDS011;31440;48.584;13.460;2022-11-20T03:07:28;26.45;;;14.98;;
45730;SDS011;31440;48.584;13.460;2022-11-20T03:09:54;26.75;;;14.02;;
45730;SDS011;31440;48.584;13.460;2022-11-20T03:12:19;27.00;;;14.55;;
45730;SDS011;31440;48.584;13.460;2022-11-20T03:14:45;26.20;;;13.77;;
45730;SDS011;31440;48.584;13.460;2022-11-20T03:17:10;27.05;;;14.75;;
45730;SDS011;31440;48.584;13.460;2022-11-20T03:19:36;26.88;;;14.52;;
45730;SDS011;31440;48.584;13.460;2022-11-20T03:22:02;25.90;;;13.75;;
45730;SDS011;31440;48.584;13.460;2022-11-20T03:24:28;28.60;;;14.95;;
45730;SDS011;31440;48.584;13.460;2022-11-20T03:26:53;25.33;;;14.93;;
45730;SDS011;31440;48.584;13.460;2022-11-20T03:29:19;26.60;;;14.07;;
45730;SDS011;31440;48.584;13.460;2022-11-20T03:31:44;27.92;;;15.15;;
45730;SDS011;31440;48.584;13.460;2022-11-20T03:34:10;27.08;;;15.23;;
45730;SDS011;31440;48.584;13.460;2022-11-20T03:36:40;24.88;;;13.80;;
45730;SDS011;31440;48.584;13.460;2022-11-20T03:39:07;24.10;;;12.75;;
45730;SDS011;31440;48.584;13.460;2022-11-20T03:41:36;24.27;;;12.98;;
45730;SDS011;31440;48.584;13.460;2022-11-20T03:44:04;28.63;;;14.43;;
45730;SDS011;31440;48.584;13.460;2022-11-20T03:46:31;25.13;;;13.90;;
45730;SDS011;31440;48.584;13.460;2022-11-20T03:48:57;26.52;;;14.27;;
45730;SDS011;31440;48.584;13.460;2022-11-20T03:51:23;23.35;;;14.02;;
45730;SDS011;31440;48.584;13.460;2022-11-20T03:53:51;23.63;;;12.40;;
45730;SDS011;31440;48.584;13.460;2022-11-20T03:56:20;25.88;;;13.18;;
45730;SDS011;31440;48.584;13.460;2022-11-20T03:58:48;25.65;;;14.57;;
45730;SDS011;31440;48.584;13.460;2022-11-20T04:01:15;25.38;;;14.10;;
45730;SDS011;31440;48.584;13.460;2022-11-20T04:03:43;25.85;;;13.25;;
45730;SDS011;31440;48.584;13.460;2022-11-20T04:06:10;23.55;;;12.02;;
45730;SDS011;31440;48.584;13.460;2022-11-20T04:08:37;27.92;;;13.20;;
45730;SDS011;31440;48.584;13.460;2022-11-20T04:11:13;28.20;;;13.48;;
45730;SDS011;31440;48.584;13.460;2022-11-20T04:13:41;29.48;;;13.43;;
45730;SDS011;31440;48.584;13.460;2022-11-20T04:16:08;24.30;;;12.63;;
45730;SDS011;31440;48.584;13.460;2022-11-20T04:18:35;27.60;;;13.65;;
45730;SDS011;31440;48.584;13.460;2022-11-20T04:21:01;32.15;;;15.20;;
45730;SDS011;31440;48.584;13.460;2022-11-20T04:23:27;27.52;;;13.90;;
45730;SDS011;31440;48.584;13.460;2022-11-20T04:25:53;27.55;;;13.45;;
45730;SDS011;31440;48.584;13.460;2022-11-20T04:28:18;28.40;;;14.68;;
45730;SDS011;31440;48.584;13.460;2022-11-20T04:30:44;21.77;;;12.25;;
45730;SDS011;31440;48.584;13.460;2022-11-20T04:33:10;29.67;;;15.43;;
45730;SDS011;31440;48.584;13.460;2022-11-20T04:35:36;32.97;;;16.27;;
45730;SDS011;31440;48.584;13.460;2022-11-20T04:38:02;26.45;;;13.38;;
45730;SDS011;31440;48.584;13.460;2022-11-20T04:40:28;28.30;;;13.93;;
45730;SDS011;31440;48.584;13.460;2022-11-20T04:42:54;26.10;;;13.15;;
45730;SDS011;31440;48.584;13.460;2022-11-20T04:45:21;27.55;;;14.68;;
45730;SDS011;31440;48.584;13.460;2022-11-20T04:47:47;24.77;;;12.70;;
45730;SDS011;31440;48.584;13.460;2022-11-20T04:50:13;26.25;;;14.10;;
45730;SDS011;31440;48.584;13.460;2022-11-20T04:52:38;28.45;;;13.32;;
45730;SDS011;31440;48.584;13.460;2022-11-20T04:55:04;26.70;;;13.23;;
45730;SDS011;31440;48.584;13.460;2022-11-20T04:57:30;22.70;;;11.77;;
45730;SDS011;31440;48.584;13.460;2022-11-20T04:59:56;24.38;;;13.75;;
45730;SDS011;31440;48.584;13.460;2022-11-20T05:02:21;27.75;;;13.55;;
45730;SDS011;31440;48.584;13.460;2022-11-20T05:04:47;30.20;;;15.68;;
45730;SDS011;31440;48.584;13.460;2022-11-20T05:07:12;41.30;;;14.95;;
45730;SDS011;31440;48.584;13.460;2022-11-20T05:09:38;32.22;;;15.90;;
45730;SDS011;31440;48.584;13.460;2022-11-20T05:12:03;37.63;;;15.98;;
45730;SDS011;31440;48.584;13.460;2022-11-20T05:14:29;35.00;;;17.63;;
45730;SDS011;31440;48.584;13.460;2022-11-20T05:16:55;31.48;;;15.50;;
45730;SDS011;31440;48.584;13.460;2022-11-20T05:19:20;30.65;;;16.48;;
45730;SDS011;31440;48.584;13.460;2022-11-20T05:21:46;30.98;;;14.32;;
45730;SDS011;31440;48.584;13.460;2022-11-20T05:24:11;30.02;;;16.15;;
45730;SDS011;31440;48.584;13.460;2022-11-20T05:26:37;33.92;;;15.70;;
45730;SDS011;31440;48.584;13.460;2022-11-20T05:29:02;30.85;;;16.42;;
45730;SDS011;31440;48.584;13.460;2022-11-20T05:31:28;32.88;;;16.08;;
45730;SDS011;31440;48.584;13.460;2022-11-20T05:33:54;34.08;;;17.38;;
45730;SDS011;31440;48.584;13.460;2022-11-20T05:36:21;34.45;;;16.83;;
45730;SDS011;31440;48.584;13.460;2022-11-20T05:38:46;29.45;;;14.98;;
45730;SDS011;31440;48.584;13.460;2022-11-20T05:43:39;25.48;;;14.27;;
45730;SDS011;31440;48.584;13.460;2022-11-20T05:46:06;22.55;;;11.45;;
45730;SDS011;31440;48.584;13.460;2022-11-20T05:48:34;22.30;;;11.52;;
45730;SDS011;31440;48.584;13.460;2022-11-20T05:51:00;29.33;;;13.40;;
45730;SDS011;31440;48.584;13.460;2022-11-20T05:53:27;26.30;;;13.70;;
45730;SDS011;31440;48.584;13.460;2022-11-20T05:55:56;28.45;;;14.82;;
45730;SDS011;31440;48.584;13.460;2022-11-20T05:58:25;31.95;;;15.48;;
45730;SDS011;31440;48.584;13.460;2022-11-20T06:00:51;34.42;;;15.40;;
45730;SDS011;31440;48.584;13.460;2022-11-20T06:03:16;30.08;;;15.07;;
45730;SDS011;31440;48.584;13.460;2022-11-20T06:05:42;31.00;;;15.45;;
45730;SDS011;31440;48.584;13.460;2022-11-20T06:08:07;28.80;;;14.13;;
45730;SDS011;31440;48.584;13.460;2022-11-20T06:10:33;29.63;;;15.48;;
45730;SDS011;31440;48.584;13.460;2022-11-20T06:12:59;31.48;;;15.48;;
45730;SDS011;31440;48.584;13.460;2022-11-20T06:15:24;31.73;;;15.65;;
45730;SDS011;31440;48.584;13.460;2022-11-20T06:17:53;27.10;;;14.05;;
45730;SDS011;31440;48.584;13.460;2022-11-20T06:20:19;29.98;;;15.10;;
45730;SDS011;31440;48.584;13.460;2022-11-20T06:22:45;27.83;;;14.93;;
45730;SDS011;31440;48.584;13.460;2022-11-20T06:25:11;29.40;;;15.93;;
45730;SDS011;31440;48.584;13.460;2022-11-20T06:27:37;31.58;;;15.90;;
45730;SDS011;31440;48.584;13.460;2022-11-20T06:30:03;25.15;;;13.20;;
45730;SDS011;31440;48.584;13.460;2022-11-20T06:32:29;25.05;;;13.52;;
45730;SDS011;31440;48.584;13.460;2022-11-20T06:34:54;26.20;;;13.35;;
45730;SDS011;31440;48.584;13.460;2022-11-20T06:37:20;26.58;;;13.60;;
45730;SDS011;31440;48.584;13.460;2022-11-20T06:39:45;27.02;;;15.52;;
45730;SDS011;31440;48.584;13.460;2022-11-20T06:42:13;29.33;;;15.15;;
45730;SDS011;31440;48.584;13.460;2022-11-20T06:44:38;23.40;;;11.63;;
45730;SDS011;31440;48.584;13.460;2022-11-20T06:47:04;22.35;;;10.70;;
45730;SDS011;31440;48.584;13.460;2022-11-20T06:51:57;22.70;;;12.80;;
45730;SDS011;31440;48.584;13.460;2022-11-20T06:54:22;22.30;;;11.95;;
45730;SDS011;31440;48.584;13.460;2022-11-20T06:56:48;24.65;;;13.25;;
45730;SDS011;31440;48.584;13.460;2022-11-20T06:59:14;23.27;;;13.80;;
45730;SDS011;31440;48.584;13.460;2022-11-20T07:01:39;25.13;;;13.07;;
45730;SDS011;31440;48.584;13.460;2022-11-20T07:04:05;23.58;;;12.77;;
45730;SDS011;31440;48.584;13.460;2022-11-20T07:06:30;25.38;;;11.82;;
45730;SDS011;31440;48.584;13.460;2022-11-20T07:08:56;21.40;;;11.85;;
45730;SDS011;31440;48.584;13.460;2022-11-20T07:11:22;24.10;;;12.80;;
45730;SDS011;31440;48.584;13.460;2022-11-20T07:13:47;19.00;;;11.10;;
45730;SDS011;31440;48.584;13.460;2022-11-20T07:16:13;24.10;;;12.43;;
45730;SDS011;31440;48.584;13.460;2022-11-20T07:18:39;19.67;;;10.30;;
45730;SDS011;31440;48.584;13.460;2022-11-20T07:21:06;19.85;;;10.30;;
45730;SDS011;31440;48.584;13.460;2022-11-20T07:23:33;19.75;;;10.38;;
45730;SDS011;31440;48.584;13.460;2022-11-20T07:26:03;16.08;;;9.55;;
45730;SDS011;31440;48.584;13.460;2022-11-20T07:28:29;19.05;;;9.55;;
45730;SDS011;31440;48.584;13.460;2022-11-20T07:30:55;16.95;;;10.75;;
45730;SDS011;31440;48.584;13.460;2022-11-20T07:33:20;21.20;;;10.73;;
45730;SDS011;31440;48.584;13.460;2022-11-20T07:35:46;19.25;;;10.73;;
45730;SDS011;31440;48.584;13.460;2022-11-20T07:38:12;16.40;;;9.45;;
45730;SDS011;31440;48.584;13.460;2022-11-20T07:40:37;17.25;;;9.73;;
45730;SDS011;31440;48.584;13.460;2022-11-20T07:43:03;14.57;;;8.48;;
45730;SDS011;31440;48.584;13.460;2022-11-20T07:45:28;15.35;;;9.25;;
45730;SDS011;31440;48.584;13.460;2022-11-20T07:47:54;17.23;;;9.70;;
45730;SDS011;31440;48.584;13.460;2022-11-20T07:50:20;17.75;;;10.30;;
45730;SDS011;31440;48.584;13.460;2022-11-20T07:52:45;16.00;;;9.02;;
45730;SDS011;31440;48.584;13.460;2022-11-20T07:55:11;16.00;;;9.02;;
45730;SDS011;31440;48.584;13.460;2022-11-20T07:57:36;17.40;;;9.20;;
45730;SDS011;31440;48.584;13.460;2022-11-20T08:00:02;17.80;;;10.00;;
45730;SDS011;31440;48.584;13.460;2022-11-20T08:02:37;19.05;;;9.98;;
45730;SDS011;31440;48.584;13.460;2022-11-20T08:05:04;17.02;;;10.25;;
45730;SDS011;31440;48.584;13.460;2022-11-20T08:07:35;19.55;;;10.77;;
45730;SDS011;31440;48.584;13.460;2022-11-20T08:10:01;19.85;;;10.40;;
45730;SDS011;31440;48.584;13.460;2022-11-20T08:15:13;20.60;;;10.80;;
45730;SDS011;31440;48.584;13.460;2022-11-20T08:17:38;23.70;;;11.20;;
45730;SDS011;31440;48.584;13.460;2022-11-20T08:20:04;22.73;;;11.18;;
45730;SDS011;31440;48.584;13.460;2022-11-20T08:22:30;28.08;;;11.27;;
45730;SDS011;31440;48.584;13.460;2022-11-20T08:24:55;20.05;;;10.45;;
45730;SDS011;31440;48.584;13.460;2022-11-20T08:27:21;24.27;;;11.18;;
45730;SDS011;31440;48.584;13.460;2022-11-20T08:29:46;22.13;;;11.85;;
45730;SDS011;31440;48.584;13.460;2022-11-20T08:32:12;22.52;;;12.82;;
45730;SDS011;31440;48.584;13.460;2022-11-20T08:34:37;18.85;;;11.63;;
45730;SDS011;31440;48.584;13.460;2022-11-20T08:37:03;18.27;;;10.73;;
45730;SDS011;31440;48.584;13.460;2022-11-20T08:39:32;18.98;;;11.10;;
45730;SDS011;31440;48.584;13.460;2022-11-20T08:41:57;20.50;;;10.50;;
45730;SDS011;31440;48.584;13.460;2022-11-20T08:44:23;20.83;;;11.10;;
45730;SDS011;31440;48.584;13.460;2022-11-20T08:46:48;20.08;;;11.27;;
45730;SDS011;31440;48.584;13.460;2022-11-20T08:49:14;20.38;;;10.80;;
45730;SDS011;31440;48.584;13.460;2022-11-20T08:51:40;18.00;;;9.88;;
45730;SDS011;31440;48.584;13.460;2022-11-20T08:54:07;20.52;;;10.90;;
45730;SDS011;31440;48.584;13.460;2022-11-20T08:56:33;15.10;;;9.40;;
45730;SDS011;31440;48.584;13.460;2022-11-20T08:58:58;13.57;;;9.25;;
45730;SDS011;31440;48.584;13.460;2022-11-20T09:01:24;16.90;;;9.85;;
45730;SDS011;31440;48.584;13.460;2022-11-20T09:03:51;14.30;;;9.25;;
45730;SDS011;31440;48.584;13.460;2022-11-20T09:06:17;16.42;;;10.18;;
45730;SDS011;31440;48.584;13.460;2022-11-20T09:08:43;14.95;;;8.73;;
45730;SDS011;31440;48.584;13.460;2022-11-20T09:11:09;13.35;;;8.25;;
45730;SDS011;31440;48.584;13.460;2022-11-20T09:13:35;10.80;;;6.95;;
45730;SDS011;31440;48.584;13.460;2022-11-20T09:16:02;15.90;;;9.15;;
45730;SDS011;31440;48.584;13.460;2022-11-20T09:18:33;11.07;;;6.65;;
45730;SDS011;31440;48.584;13.460;2022-11-20T09:21:02;13.60;;;9.43;;
45730;SDS011;31440;48.584;13.460;2022-11-20T09:23:33;12.10;;;7.43;;
45730;SDS011;31440;48.584;13.460;2022-11-20T09:26:04;13.90;;;8.32;;
45730;SDS011;31440;48.584;13.460;2022-11-20T09:28:30;14.18;;;8.82;;
45730;SDS011;31440;48.584;13.460;2022-11-20T09:30:56;12.57;;;8.15;;
45730;SDS011;31440;48.584;13.460;2022-11-20T09:33:22;17.13;;;9.77;;
45730;SDS011;31440;48.584;13.460;2022-11-20T09:35:48;11.40;;;7.80;;
45730;SDS011;31440;48.584;13.460;2022-11-20T09:38:13;12.82;;;7.78;;
45730;SDS011;31440;48.584;13.460;2022-11-20T09:48:42;11.55;;;7.38;;
45730;SDS011;31440;48.584;13.460;2022-11-20T09:56:19;14.52;;;8.88;;
45730;SDS011;31440;48.584;13.460;2022-11-20T09:58:47;12.98;;;9.23;;
45730;SDS011;31440;48.584;13.460;2022-11-20T10:01:16;14.23;;;8.63;;
45730;SDS011;31440;48.584;13.460;2022-11-20T10:14:26;12.55;;;8.45;;
45730;SDS011;31440;48.584;13.460;2022-11-20T10:20:02;12.75;;;7.75;;
45730;SDS011;31440;48.584;13.460;2022-11-20T10:22:54;11.88;;;8.38;;
45730;SDS011;31440;48.584;13.460;2022-11-20T10:25:27;12.98;;;8.65;;
45730;SDS011;31440;48.584;13.460;2022-11-20T10:30:43;13.25;;;8.57;;
45730;SDS011;31440;48.584;13.460;2022-11-20T10:33:17;15.77;;;9.47;;
45730;SDS011;31440;48.584;13.460;2022-11-20T10:35:50;16.85;;;10.18;;
45730;SDS011;31440;48.584;13.460;2022-11-20T10:38:25;14.82;;;9.27;;
45730;SDS011;31440;48.584;13.460;2022-11-20T10:40:59;17.80;;;10.73;;
45730;SDS011;31440;48.584;13.460;2022-11-20T10:43:47;15.70;;;10.02;;
45730;SDS011;31440;48.584;13.460;2022-11-20T10:46:17;18.10;;;11.43;;
45730;SDS011;31440;48.584;13.460;2022-11-20T10:48:47;16.95;;;9.80;;
45730;SDS011;31440;48.584;13.460;2022-11-20T10:54:04;16.75;;;10.13;;
45730;SDS011;31440;48.584;13.460;2022-11-20T10:57:05;17.73;;;10.77;;
45730;SDS011;31440;48.584;13.460;2022-11-20T11:02:17;16.80;;;10.20;;
45730;SDS011;31440;48.584;13.460;2022-11-20T11:04:49;17.35;;;10.95;;
45730;SDS011;31440;48.584;13.460;2022-11-20T11:07:17;15.15;;;9.45;;
45730;SDS011;31440;48.584;13.460;2022-11-20T11:09:51;15.00;;;8.93;;
45730;SDS011;31440;48.584;13.460;2022-11-20T11:12:19;13.53;;;8.60;;
45730;SDS011;31440;48.584;13.460;2022-11-20T11:18:22;15.45;;;8.68;;
45730;SDS011;31440;48.584;13.460;2022-11-20T11:20:16;13.82;;;9.10;;
45730;SDS011;31440;48.584;13.460;2022-11-20T11:22:48;14.00;;;8.65;;
45730;SDS011;31440;48.584;13.460;2022-11-20T11:25:55;13.85;;;8.73;;
45730;SDS011;31440;48.584;13.460;2022-11-20T11:30:43;11.30;;;6.60;;
45730;SDS011;31440;48.584;13.460;2022-11-20T11:33:10;8.77;;;5.30;;
45730;SDS011;31440;48.584;13.460;2022-11-20T11:35:49;9.32;;;5.50;;
45730;SDS011;31440;48.584;13.460;2022-11-20T11:38:27;7.28;;;4.95;;
45730;SDS011;31440;48.584;13.460;2022-11-20T11:40:56;5.55;;;4.45;;
45730;SDS011;31440;48.584;13.460;2022-11-20T11:43:24;6.60;;;4.90;;
45730;SDS011;31440;48.584;13.460;2022-11-20T11:49:19;3.78;;;3.10;;
45730;SDS011;31440;48.584;13.460;2022-11-20T11:51:58;2.83;;;2.28;;
45730;SDS011;31440;48.584;13.460;2022-11-20T11:54:32;3.67;;;2.92;;
45730;SDS011;31440;48.584;13.460;2022-11-20T11:59:27;3.53;;;2.60;;
45730;SDS011;31440;48.584;13.460;2022-11-20T12:02:04;4.55;;;2.55;;
45730;SDS011;31440;48.584;13.460;2022-11-20T12:04:48;3.50;;;2.20;;
45730;SDS011;31440;48.584;13.460;2022-11-20T12:07:22;3.47;;;2.33;;
45730;SDS011;31440;48.584;13.460;2022-11-20T12:13:17;4.07;;;2.80;;
45730;SDS011;31440;48.584;13.460;2022-11-20T12:15:46;2.55;;;2.00;;
45730;SDS011;31440;48.584;13.460;2022-11-20T12:18:20;4.28;;;2.47;;
45730;SDS011;31440;48.584;13.460;2022-11-20T12:21:00;5.88;;;2.35;;
45730;SDS011;31440;48.584;13.460;2022-11-20T12:23:28;5.07;;;2.00;;
45730;SDS011;31440;48.584;13.460;2022-11-20T12:29:31;3.63;;;2.00;;
45730;SDS011;31440;48.584;13.460;2022-11-20T12:34:43;3.25;;;2.65;;
45730;SDS011;31440;48.584;13.460;2022-11-20T12:43:25;4.82;;;2.25;;
45730;SDS011;31440;48.584;13.460;2022-11-20T12:54:43;2.72;;;1.85;;
45730;SDS011;31440;48.584;13.460;2022-11-20T13:02:35;4.00;;;1.90;;
45730;SDS011;31440;48.584;13.460;2022-11-20T13:07:40;3.23;;;1.53;;
45730;SDS011;31440;48.584;13.460;2022-11-20T13:10:31;8.90;;;2.53;;
45730;SDS011;31440;48.584;13.460;2022-11-20T13:13:07;2.72;;;1.60;;
45730;SDS011;31440;48.584;13.460;2022-11-20T13:18:19;4.80;;;1.85;;
45730;SDS011;31440;48.584;13.460;2022-11-20T13:20:45;3.83;;;2.00;;
45730;SDS011;31440;48.584;13.460;2022-11-20T13:23:22;2.35;;;1.90;;
45730;SDS011;31440;48.584;13.460;2022-11-20T13:28:48;3.15;;;2.00;;
45730;SDS011;31440;48.584;13.460;2022-11-20T13:31:31;2.00;;;1.77;;
45730;SDS011;31440;48.584;13.460;2022-11-20T13:33:59;3.08;;;2.20;;
45730;SDS011;31440;48.584;13.460;2022-11-20T13:36:28;3.50;;;1.85;;
45730;SDS011;31440;48.584;13.460;2022-11-20T13:38:55;2.42;;;1.70;;
45730;SDS011;31440;48.584;13.460;2022-11-20T13:44:05;2.85;;;1.92;;
45730;SDS011;31440;48.584;13.460;2022-11-20T13:46:39;2.63;;;2.00;;
45730;SDS011;31440;48.584;13.460;2022-11-20T13:49:06;2.95;;;2.10;;
45730;SDS011;31440;48.584;13.460;2022-11-20T13:51:44;5.70;;;2.20;;
45730;SDS011;31440;48.584;13.460;2022-11-20T14:02:27;3.72;;;2.30;;
45730;SDS011;31440;48.584;13.460;2022-11-20T14:04:56;2.33;;;1.92;;
45730;SDS011;31440;48.584;13.460;2022-11-20T14:07:25;2.38;;;2.10;;
45730;SDS011;31440;48.584;13.460;2022-11-20T14:09:57;6.43;;;2.75;;
45730;SDS011;31440;48.584;13.460;2022-11-20T14:12:31;5.22;;;2.25;;
45730;SDS011;31440;48.584;13.460;2022-11-20T14:14:58;3.22;;;2.10;;
45730;SDS011;31440;48.584;13.460;2022-11-20T14:17:32;3.22;;;2.38;;
45730;SDS011;31440;48.584;13.460;2022-11-20T14:20:00;4.78;;;2.78;;
45730;SDS011;31440;48.584;13.460;2022-11-20T14:22:29;3.00;;;2.20;;
45730;SDS011;31440;48.584;13.460;2022-11-20T14:25:02;5.20;;;2.65;;
45730;SDS011;31440;48.584;13.460;2022-11-20T14:27:44;3.08;;;2.17;;
45730;SDS011;31440;48.584;13.460;2022-11-20T14:32:46;3.50;;;2.33;;
45730;SDS011;31440;48.584;13.460;2022-11-20T14:35:56;3.10;;;2.53;;
45730;SDS011;31440;48.584;13.460;2022-11-20T14:38:08;4.47;;;2.40;;
45730;SDS011;31440;48.584;13.460;2022-11-20T14:40:38;4.60;;;2.40;;
45730;SDS011;31440;48.584;13.460;2022-11-20T14:43:18;6.88;;;2.67;;
45730;SDS011;31440;48.584;13.460;2022-11-20T14:45:55;3.47;;;2.40;;
45730;SDS011;31440;48.584;13.460;2022-11-20T14:48:31;3.70;;;1.98;;
45730;SDS011;31440;48.584;13.460;2022-11-20T14:51:00;3.08;;;2.03;;
45730;SDS011;31440;48.584;13.460;2022-11-20T14:53:26;4.43;;;2.35;;
45730;SDS011;31440;48.584;13.460;2022-11-20T14:55:58;4.72;;;2.00;;
45730;SDS011;31440;48.584;13.460;2022-11-20T14:58:31;4.35;;;2.65;;
45730;SDS011;31440;48.584;13.460;2022-11-20T15:01:05;3.28;;;2.15;;
45730;SDS011;31440;48.584;13.460;2022-11-20T15:03:33;3.45;;;2.00;;
45730;SDS011;31440;48.584;13.460;2022-11-20T15:06:01;2.13;;;1.83;;
45730;SDS011;31440;48.584;13.460;2022-11-20T15:08:27;2.28;;;2.08;;
45730;SDS011;31440;48.584;13.460;2022-11-20T15:10:53;4.57;;;1.73;;
45730;SDS011;31440;48.584;13.460;2022-11-20T15:13:34;3.00;;;2.25;;
45730;SDS011;31440;48.584;13.460;2022-11-20T15:16:02;3.58;;;1.92;;
45730;SDS011;31440;48.584;13.460;2022-11-20T15:18:38;3.60;;;1.90;;
45730;SDS011;31440;48.584;13.460;2022-11-20T15:21:13;2.63;;;1.90;;
45730;SDS011;31440;48.584;13.460;2022-11-20T15:23:40;2.85;;;1.70;;
45730;SDS011;31440;48.584;13.460;2022-11-20T15:26:07;2.88;;;2.17;;
45730;SDS011;31440;48.584;13.460;2022-11-20T15:28:34;4.85;;;2.30;;
45730;SDS011;31440;48.584;13.460;2022-11-20T15:31:02;3.67;;;2.40;;
45730;SDS011;31440;48.584;13.460;2022-11-20T15:33:29;3.03;;;2.33;;
45730;SDS011;31440;48.584;13.460;2022-11-20T15:35:56;3.30;;;2.60;;
45730;SDS011;31440;48.584;13.460;2022-11-20T15:38:22;4.72;;;3.08;;
45730;SDS011;31440;48.584;13.460;2022-11-20T15:40:47;6.00;;;3.08;;
45730;SDS011;31440;48.584;13.460;2022-11-20T15:43:13;3.20;;;2.67;;
45730;SDS011;31440;48.584;13.460;2022-11-20T15:45:45;3.65;;;2.38;;
45730;SDS011;31440;48.584;13.460;2022-11-20T15:48:15;5.20;;;2.08;;
45730;SDS011;31440;48.584;13.460;2022-11-20T15:50:48;3.08;;;2.08;;
45730;SDS011;31440;48.584;13.460;2022-11-20T15:53:18;3.13;;;1.77;;
45730;SDS011;31440;48.584;13.460;2022-11-20T15:55:44;2.05;;;1.80;;
45730;SDS011;31440;48.584;13.460;2022-11-20T15:58:09;1.85;;;1.45;;
45730;SDS011;31440;48.584;13.460;2022-11-20T16:00:35;4.15;;;1.55;;
45730;SDS011;31440;48.584;13.460;2022-11-20T16:03:00;2.33;;;1.85;;
45730;SDS011;31440;48.584;13.460;2022-11-20T16:05:29;2.40;;;1.83;;
45730;SDS011;31440;48.584;13.460;2022-11-20T16:07:55;2.00;;;1.80;;
45730;SDS011;31440;48.584;13.460;2022-11-20T16:10:21;2.72;;;1.77;;